sensor_id;sensor_type;location;lat;lon;timestamp;pressure;altitude;pressure_sealevel;temperature;humidity
76156;BME280;64906;51.290;7.348;2023-07-20T00:02:12;98521.66;;;23.53;50.56
76156;BME280;64906;51.290;7.348;2023-07-20T00:04:38;98522.94;;;23.55;50.45
76156;BME280;64906;51.290;7.348;2023-07-20T00:07:03;98522.47;;;23.53;50.40
76156;BME280;64906;51.290;7.348;2023-07-20T00:09:29;98521.66;;;23.53;50.57
76156;BME280;64906;51.290;7.348;2023-07-20T00:11:54;98521.66;;;23.53;50.45
76156;BME280;64906;51.290;7.348;2023-07-20T00:14:20;98512.25;;;23.54;50.08
76156;BME280;64906;51.290;7.348;2023-07-20T00:16:46;98509.81;;;23.52;50.67
76156;BME280;64906;51.290;7.348;2023-07-20T00:19:22;98510.94;;;23.51;50.57
76156;BME280;64906;51.290;7.348;2023-07-20T00:21:47;98501.53;;;23.52;50.35
76156;BME280;64906;51.290;7.348;2023-07-20T00:24:13;98508.38;;;23.55;50.42
76156;BME280;64906;51.290;7.348;2023-07-20T00:26:38;98504.13;;;23.49;50.19
76156;BME280;64906;51.290;7.348;2023-07-20T00:29:03;98505.75;;;23.50;50.62
76156;BME280;64906;51.290;7.348;2023-07-20T00:31:29;98502.19;;;23.49;50.48
76156;BME280;64906;51.290;7.348;2023-07-20T00:33:54;98502.38;;;23.53;50.38
76156;BME280;64906;51.290;7.348;2023-07-20T00:36:19;98498.59;;;23.49;50.36
76156;BME280;64906;51.290;7.348;2023-07-20T00:38:45;98501.38;;;23.49;50.49
76156;BME280;64906;51.290;7.348;2023-07-20T00:41:10;98499.75;;;23.48;50.48
76156;BME280;64906;51.290;7.348;2023-07-20T00:43:35;98498.59;;;23.49;50.50
76156;BME280;64906;51.290;7.348;2023-07-20T00:46:01;98500.91;;;23.47;50.45
76156;BME280;64906;51.290;7.348;2023-07-20T00:48:28;98492.13;;;23.45;50.69
76156;BME280;64906;51.290;7.348;2023-07-20T00:50:54;98494.56;;;23.46;50.64
76156;BME280;64906;51.290;7.348;2023-07-20T00:53:19;98500.91;;;23.47;50.71
76156;BME280;64906;51.290;7.348;2023-07-20T00:55:45;98510.28;;;23.46;50.54
76156;BME280;64906;51.290;7.348;2023-07-20T00:58:10;98504.25;;;23.44;50.55
76156;BME280;64906;51.290;7.348;2023-07-20T01:00:36;98508.97;;;23.43;50.61
76156;BME280;64906;51.290;7.348;2023-07-20T01:03:01;98504.75;;;23.46;50.74
76156;BME280;64906;51.290;7.348;2023-07-20T01:05:38;98505.91;;;23.45;50.50
76156;BME280;64906;51.290;7.348;2023-07-20T01:08:12;98497.31;;;23.46;50.33
76156;BME280;64906;51.290;7.348;2023-07-20T01:10:44;98491.31;;;23.44;50.55
76156;BME280;64906;51.290;7.348;2023-07-20T01:13:14;98497.97;;;23.43;50.53
76156;BME280;64906;51.290;7.348;2023-07-20T01:15:40;98495.22;;;23.43;50.56
76156;BME280;64906;51.290;7.348;2023-07-20T01:18:05;98501.50;;;23.44;50.78
76156;BME280;64906;51.290;7.348;2023-07-20T01:20:32;98503.47;;;23.43;50.69
76156;BME280;64906;51.290;7.348;2023-07-20T01:23:28;98501.34;;;23.40;50.48
76156;BME280;64906;51.290;7.348;2023-07-20T01:29:14;98496.78;;;23.36;50.58
76156;BME280;64906;51.290;7.348;2023-07-20T01:31:44;98492.59;;;23.38;50.78
76156;BME280;64906;51.290;7.348;2023-07-20T01:34:12;98494.22;;;23.39;50.58
76156;BME280;64906;51.290;7.348;2023-07-20T01:36:39;98493.72;;;23.37;50.78
76156;BME280;64906;51.290;7.348;2023-07-20T01:39:06;98493.72;;;23.37;50.75
76156;BME280;64906;51.290;7.348;2023-07-20T01:41:32;98494.53;;;23.38;50.45
76156;BME280;64906;51.290;7.348;2023-07-20T01:43:58;98486.59;;;23.36;50.56
76156;BME280;64906;51.290;7.348;2023-07-20T01:46:24;98488.50;;;23.36;50.79
76156;BME280;64906;51.290;7.348;2023-07-20T01:48:49;98496.16;;;23.39;50.42
76156;BME280;64906;51.290;7.348;2023-07-20T01:51:16;98488.50;;;23.36;50.94
76156;BME280;64906;51.290;7.348;2023-07-20T01:53:43;98489.66;;;23.35;50.95
76156;BME280;64906;51.290;7.348;2023-07-20T01:56:08;98490.81;;;23.34;50.79
76156;BME280;64906;51.290;7.348;2023-07-20T01:58:33;98486.41;;;23.33;50.98
76156;BME280;64906;51.290;7.348;2023-07-20T02:01:00;98490.81;;;23.34;51.01
76156;BME280;64906;51.290;7.348;2023-07-20T02:03:26;98481.91;;;23.37;50.61
76156;BME280;64906;51.290;7.348;2023-07-20T02:05:51;98489.16;;;23.33;50.87
76156;BME280;64906;51.290;7.348;2023-07-20T02:08:17;98483.66;;;23.33;50.93
76156;BME280;64906;51.290;7.348;2023-07-20T02:10:46;98481.41;;;23.35;50.76
76156;BME280;64906;51.290;7.348;2023-07-20T02:13:12;98484.66;;;23.37;50.59
76156;BME280;64906;51.290;7.348;2023-07-20T02:15:37;98489.97;;;23.33;50.52
76156;BME280;64906;51.290;7.348;2023-07-20T02:18:02;98487.09;;;23.38;50.70
76156;BME280;64906;51.290;7.348;2023-07-20T02:20:28;98477.50;;;23.36;50.77
76156;BME280;64906;51.290;7.348;2023-07-20T02:22:54;98472.00;;;23.36;50.74
76156;BME280;64906;51.290;7.348;2023-07-20T02:25:19;98478.31;;;23.36;50.78
76156;BME280;64906;51.290;7.348;2023-07-20T02:27:44;98487.09;;;23.38;50.66
76156;BME280;64906;51.290;7.348;2023-07-20T02:30:10;98483.31;;;23.34;50.95
76156;BME280;64906;51.290;7.348;2023-07-20T02:32:36;98475.38;;;23.33;50.84
76156;BME280;64906;51.290;7.348;2023-07-20T02:35:02;98479.78;;;23.34;50.85
76156;BME280;64906;51.290;7.348;2023-07-20T02:37:28;98483.66;;;23.33;50.97
76156;BME280;64906;51.290;7.348;2023-07-20T02:39:54;98484.16;;;23.35;50.38
76156;BME280;64906;51.290;7.348;2023-07-20T02:42:19;98483.16;;;23.31;50.49
76156;BME280;64906;51.290;7.348;2023-07-20T02:44:44;98493.22;;;23.35;50.82
76156;BME280;64906;51.290;7.348;2023-07-20T02:47:10;98486.72;;;23.31;50.92
76156;BME280;64906;51.290;7.348;2023-07-20T02:49:35;98484.47;;;23.33;50.61
76156;BME280;64906;51.290;7.348;2023-07-20T02:52:00;98484.16;;;23.35;50.46
76156;BME280;64906;51.290;7.348;2023-07-20T02:54:26;98483.16;;;23.31;50.57
76156;BME280;64906;51.290;7.348;2023-07-20T02:56:51;98483.16;;;23.31;50.61
76156;BME280;64906;51.290;7.348;2023-07-20T02:59:16;98489.66;;;23.35;50.39
76156;BME280;64906;51.290;7.348;2023-07-20T03:01:42;98482.03;;;23.32;50.62
76156;BME280;64906;51.290;7.348;2023-07-20T03:04:07;98484.78;;;23.32;50.63
76156;BME280;64906;51.290;7.348;2023-07-20T03:06:35;98486.22;;;23.29;50.71
76156;BME280;64906;51.290;7.348;2023-07-20T03:09:01;98485.91;;;23.31;50.65
76156;BME280;64906;51.290;7.348;2023-07-20T03:11:26;98493.56;;;23.34;50.78
76156;BME280;64906;51.290;7.348;2023-07-20T03:13:51;98492.56;;;23.30;50.71
76156;BME280;64906;51.290;7.348;2023-07-20T03:16:18;98495.50;;;23.33;50.97
76156;BME280;64906;51.290;7.348;2023-07-20T03:18:44;98505.50;;;23.29;50.74
76156;BME280;64906;51.290;7.348;2023-07-20T03:21:10;98494.16;;;23.31;50.78
76156;BME280;64906;51.290;7.348;2023-07-20T03:23:40;98491.41;;;23.31;50.68
76156;BME280;64906;51.290;7.348;2023-07-20T03:26:06;98494.47;;;23.29;51.01
76156;BME280;64906;51.290;7.348;2023-07-20T03:28:34;98500.81;;;23.30;50.69
76156;BME280;64906;51.290;7.348;2023-07-20T03:30:59;98499.19;;;23.29;50.63
76156;BME280;64906;51.290;7.348;2023-07-20T03:33:26;98503.38;;;23.26;50.92
76156;BME280;64906;51.290;7.348;2023-07-20T03:35:52;98501.47;;;23.27;50.69
76156;BME280;64906;51.290;7.348;2023-07-20T03:38:18;98500.91;;;23.25;51.03
76156;BME280;64906;51.290;7.348;2023-07-20T03:40:50;98500.91;;;23.25;50.62
76156;BME280;64906;51.290;7.348;2023-07-20T03:43:16;98494.00;;;23.27;50.75
76156;BME280;64906;51.290;7.348;2023-07-20T03:45:41;98495.63;;;23.28;50.65
76156;BME280;64906;51.290;7.348;2023-07-20T03:48:07;98489.28;;;23.28;50.89
76156;BME280;64906;51.290;7.348;2023-07-20T03:50:32;98491.25;;;23.27;51.05
76156;BME280;64906;51.290;7.348;2023-07-20T03:52:58;98491.84;;;23.24;51.03
76156;BME280;64906;51.290;7.348;2023-07-20T03:55:23;98493.19;;;23.27;50.63
76156;BME280;64906;51.290;7.348;2023-07-20T03:57:48;98496.56;;;23.24;51.14
76156;BME280;64906;51.290;7.348;2023-07-20T04:00:16;98498.16;;;23.25;51.06
76156;BME280;64906;51.290;7.348;2023-07-20T04:02:42;98495.94;;;23.27;50.72
76156;BME280;64906;51.290;7.348;2023-07-20T04:05:07;98505.59;;;23.24;50.72
76156;BME280;64906;51.290;7.348;2023-07-20T04:07:33;98505.94;;;23.23;50.87
76156;BME280;64906;51.290;7.348;2023-07-20T04:09:58;98509.19;;;23.25;50.76
76156;BME280;64906;51.290;7.348;2023-07-20T04:12:23;98518.47;;;23.29;50.92
76156;BME280;64906;51.290;7.348;2023-07-20T04:14:48;98517.44;;;23.25;50.89
76156;BME280;64906;51.290;7.348;2023-07-20T04:17:14;98518.09;;;23.22;51.14
76156;BME280;64906;51.290;7.348;2023-07-20T04:19:39;98518.59;;;23.24;51.18
76156;BME280;64906;51.290;7.348;2023-07-20T04:22:04;98520.03;;;23.21;50.77
76156;BME280;64906;51.290;7.348;2023-07-20T04:24:30;98524.41;;;23.22;51.23
76156;BME280;64906;51.290;7.348;2023-07-20T04:26:55;98528.78;;;23.23;51.20
76156;BME280;64906;51.290;7.348;2023-07-20T04:29:20;98534.78;;;23.25;50.66
76156;BME280;64906;51.290;7.348;2023-07-20T04:31:45;98521.34;;;23.24;51.03
76156;BME280;64906;51.290;7.348;2023-07-20T04:34:11;98533.38;;;23.28;50.87
76156;BME280;64906;51.290;7.348;2023-07-20T04:36:36;98525.22;;;23.23;50.71
76156;BME280;64906;51.290;7.348;2023-07-20T04:39:02;98539.47;;;23.25;50.95
76156;BME280;64906;51.290;7.348;2023-07-20T04:41:28;98531.22;;;23.25;50.84
76156;BME280;64906;51.290;7.348;2023-07-20T04:43:53;98536.13;;;23.28;50.85
76156;BME280;64906;51.290;7.348;2023-07-20T04:46:18;98535.91;;;23.24;51.12
76156;BME280;64906;51.290;7.348;2023-07-20T04:48:44;98535.13;;;23.24;50.99
76156;BME280;64906;51.290;7.348;2023-07-20T04:51:09;98536.72;;;23.25;50.60
76156;BME280;64906;51.290;7.348;2023-07-20T04:53:35;98541.41;;;23.24;50.98
76156;BME280;64906;51.290;7.348;2023-07-20T04:56:00;98536.44;;;23.26;50.85
76156;BME280;64906;51.290;7.348;2023-07-20T04:58:26;98531.22;;;23.25;50.81
76156;BME280;64906;51.290;7.348;2023-07-20T05:00:51;98529.97;;;23.31;50.84
76156;BME280;64906;51.290;7.348;2023-07-20T05:03:17;98521.25;;;23.29;50.69
76156;BME280;64906;51.290;7.348;2023-07-20T05:05:42;98515.72;;;23.29;50.56
76156;BME280;64906;51.290;7.348;2023-07-20T05:08:08;98522.84;;;23.30;50.62
76156;BME280;64906;51.290;7.348;2023-07-20T05:10:33;98525.09;;;23.28;50.72
76156;BME280;64906;51.290;7.348;2023-07-20T05:12:59;98527.84;;;23.28;50.95
76156;BME280;64906;51.290;7.348;2023-07-20T05:15:24;98527.34;;;23.26;50.43
76156;BME280;64906;51.290;7.348;2023-07-20T05:17:49;98529.00;;;23.27;51.14
76156;BME280;64906;51.290;7.348;2023-07-20T05:20:15;98522.94;;;23.25;50.98
76156;BME280;64906;51.290;7.348;2023-07-20T05:22:40;98523.28;;;23.23;50.81
76156;BME280;64906;51.290;7.348;2023-07-20T05:25:07;98531.22;;;23.25;51.00
76156;BME280;64906;51.290;7.348;2023-07-20T05:27:33;98530.41;;;23.24;50.99
76156;BME280;64906;51.290;7.348;2023-07-20T05:29:59;98531.84;;;23.22;51.16
76156;BME280;64906;51.290;7.348;2023-07-20T05:32:24;98537.56;;;23.25;50.88
76156;BME280;64906;51.290;7.348;2023-07-20T05:34:52;98531.22;;;23.25;50.76
76156;BME280;64906;51.290;7.348;2023-07-20T05:37:17;98539.81;;;23.23;50.79
76156;BME280;64906;51.290;7.348;2023-07-20T05:39:43;98540.13;;;23.22;51.02
76156;BME280;64906;51.290;7.348;2023-07-20T05:42:08;98544.00;;;23.21;51.10
76156;BME280;64906;51.290;7.348;2023-07-20T05:44:33;98544.16;;;23.24;51.14
76156;BME280;64906;51.290;7.348;2023-07-20T05:46:58;98542.22;;;23.25;50.69
76156;BME280;64906;51.290;7.348;2023-07-20T05:49:24;98551.53;;;23.29;50.97
76156;BME280;64906;51.290;7.348;2023-07-20T05:51:49;98557.94;;;23.24;50.56
76156;BME280;64906;51.290;7.348;2023-07-20T05:54:15;98555.09;;;23.29;50.67
76156;BME280;64906;51.290;7.348;2023-07-20T05:56:40;98554.75;;;23.31;50.67
76156;BME280;64906;51.290;7.348;2023-07-20T05:59:05;98556.91;;;23.34;50.82
76156;BME280;64906;51.290;7.348;2023-07-20T06:01:30;98558.19;;;23.36;50.39
76156;BME280;64906;51.290;7.348;2023-07-20T06:03:56;98564.22;;;23.38;50.33
76156;BME280;64906;51.290;7.348;2023-07-20T06:06:21;98568.94;;;23.46;50.50
76156;BME280;64906;51.290;7.348;2023-07-20T06:08:46;98560.88;;;23.50;50.22
76156;BME280;64906;51.290;7.348;2023-07-20T06:11:12;98564.59;;;23.54;50.37
76156;BME280;64906;51.290;7.348;2023-07-20T06:13:37;98570.09;;;23.54;50.08
76156;BME280;64906;51.290;7.348;2023-07-20T06:16:03;98576.13;;;23.56;50.13
76156;BME280;64906;51.290;7.348;2023-07-20T06:18:28;98575.63;;;23.54;50.12
76156;BME280;64906;51.290;7.348;2023-07-20T06:20:54;98568.69;;;23.56;50.08
76156;BME280;64906;51.290;7.348;2023-07-20T06:23:19;98574.03;;;23.61;50.13
76156;BME280;64906;51.290;7.348;2023-07-20T06:25:45;98565.59;;;23.58;49.69
76156;BME280;64906;51.290;7.348;2023-07-20T06:28:10;98581.31;;;23.57;49.89
76156;BME280;64906;51.290;7.348;2023-07-20T06:30:35;98576.97;;;23.65;49.84
76156;BME280;64906;51.290;7.348;2023-07-20T06:33:01;98583.44;;;23.60;50.04
76156;BME280;64906;51.290;7.348;2023-07-20T06:35:26;98583.28;;;23.57;49.87
76156;BME280;64906;51.290;7.348;2023-07-20T06:37:52;98582.28;;;23.53;50.14
76156;BME280;64906;51.290;7.348;2023-07-20T06:40:17;98588.16;;;23.60;49.97
76156;BME280;64906;51.290;7.348;2023-07-20T06:42:43;98573.72;;;23.63;49.49
76156;BME280;64906;51.290;7.348;2023-07-20T06:45:08;98571.94;;;23.58;49.63
76156;BME280;64906;51.290;7.348;2023-07-20T06:47:34;98579.25;;;23.63;49.36
76156;BME280;64906;51.290;7.348;2023-07-20T06:49:59;98576.13;;;23.56;49.88
76156;BME280;64906;51.290;7.348;2023-07-20T06:52:25;98577.75;;;23.57;49.54
76156;BME280;64906;51.290;7.348;2023-07-20T06:54:50;98579.06;;;23.59;49.75
76156;BME280;64906;51.290;7.348;2023-07-20T06:57:15;98580.84;;;23.64;49.31
76156;BME280;64906;51.290;7.348;2023-07-20T06:59:40;98588.81;;;23.65;49.38
76156;BME280;64906;51.290;7.348;2023-07-20T07:02:06;98593.03;;;23.63;49.33
76156;BME280;64906;51.290;7.348;2023-07-20T07:04:31;98600.66;;;23.66;49.21
76156;BME280;64906;51.290;7.348;2023-07-20T07:06:57;98593.19;;;23.66;48.99
76156;BME280;64906;51.290;7.348;2023-07-20T07:09:22;98597.72;;;23.62;49.07
76156;BME280;64906;51.290;7.348;2023-07-20T07:11:47;98601.94;;;23.60;49.68
76156;BME280;64906;51.290;7.348;2023-07-20T07:14:13;98602.72;;;23.60;49.16
76156;BME280;64906;51.290;7.348;2023-07-20T07:16:38;98601.59;;;23.61;49.61
76156;BME280;64906;51.290;7.348;2023-07-20T07:19:05;98603.03;;;23.59;49.62
76156;BME280;64906;51.290;7.348;2023-07-20T07:21:31;98605.00;;;23.58;49.23
76156;BME280;64906;51.290;7.348;2023-07-20T07:23:56;98603.34;;;23.57;49.21
76156;BME280;64906;51.290;7.348;2023-07-20T07:26:23;98607.13;;;23.61;49.32
76156;BME280;64906;51.290;7.348;2023-07-20T07:28:49;98610.06;;;23.65;49.22
76156;BME280;64906;51.290;7.348;2023-07-20T07:31:14;98608.91;;;23.66;49.35
76156;BME280;64906;51.290;7.348;2023-07-20T07:33:40;98607.31;;;23.65;49.17
76156;BME280;64906;51.290;7.348;2023-07-20T07:36:05;98603.09;;;23.67;49.27
76156;BME280;64906;51.290;7.348;2023-07-20T07:38:31;98606.16;;;23.66;49.10
76156;BME280;64906;51.290;7.348;2023-07-20T07:40:57;98607.31;;;23.65;49.13
76156;BME280;64906;51.290;7.348;2023-07-20T07:43:23;98608.09;;;23.65;48.88
76156;BME280;64906;51.290;7.348;2023-07-20T07:45:48;98618.31;;;23.65;49.43
76156;BME280;64906;51.290;7.348;2023-07-20T07:48:13;98609.56;;;23.63;49.41
76156;BME280;64906;51.290;7.348;2023-07-20T07:50:39;98615.88;;;23.63;49.11
76156;BME280;64906;51.290;7.348;2023-07-20T07:53:07;98617.50;;;23.64;49.27
76156;BME280;64906;51.290;7.348;2023-07-20T07:55:34;98625.44;;;23.66;48.94
76156;BME280;64906;51.290;7.348;2023-07-20T07:58:00;98625.13;;;23.67;48.85
76156;BME280;64906;51.290;7.348;2023-07-20T08:00:25;98628.06;;;23.71;48.94
76156;BME280;64906;51.290;7.348;2023-07-20T08:02:51;98623.69;;;23.70;49.31
76156;BME280;64906;51.290;7.348;2023-07-20T08:05:16;98625.00;;;23.72;49.43
76156;BME280;64906;51.290;7.348;2023-07-20T08:07:42;98630.00;;;23.70;49.26
76156;BME280;64906;51.290;7.348;2023-07-20T08:10:08;98631.97;;;23.70;49.02
76156;BME280;64906;51.290;7.348;2023-07-20T08:12:33;98634.22;;;23.68;49.33
76156;BME280;64906;51.290;7.348;2023-07-20T08:14:59;98638.28;;;23.70;48.79
76156;BME280;64906;51.290;7.348;2023-07-20T08:17:24;98636.69;;;23.78;48.98
76156;BME280;64906;51.290;7.348;2023-07-20T08:19:50;98634.91;;;23.82;49.01
76156;BME280;64906;51.290;7.348;2023-07-20T08:22:15;98631.06;;;23.83;48.48
76156;BME280;64906;51.290;7.348;2023-07-20T08:24:41;98644.84;;;23.83;48.49
76156;BME280;64906;51.290;7.348;2023-07-20T08:27:07;98647.44;;;23.88;48.21
76156;BME280;64906;51.290;7.348;2023-07-20T08:29:33;98646.81;;;23.91;48.39
76156;BME280;64906;51.290;7.348;2023-07-20T08:31:59;98652.31;;;23.91;48.15
76156;BME280;64906;51.290;7.348;2023-07-20T08:34:24;98643.06;;;23.87;48.56
76156;BME280;64906;51.290;7.348;2023-07-20T08:36:49;98648.09;;;23.93;48.15
76156;BME280;64906;51.290;7.348;2023-07-20T08:39:15;98650.03;;;23.93;48.37
76156;BME280;64906;51.290;7.348;2023-07-20T08:41:42;98654.94;;;23.96;47.77
76156;BME280;64906;51.290;7.348;2023-07-20T08:44:08;98644.59;;;24.02;47.66
76156;BME280;64906;51.290;7.348;2023-07-20T08:46:35;98646.72;;;24.05;47.81
76156;BME280;64906;51.290;7.348;2023-07-20T08:49:00;98649.97;;;24.07;47.84
76156;BME280;64906;51.290;7.348;2023-07-20T08:51:28;98644.13;;;24.08;47.46
76156;BME280;64906;51.290;7.348;2023-07-20T08:53:54;98653.03;;;24.05;47.74
76156;BME280;64906;51.290;7.348;2023-07-20T08:56:20;98647.03;;;24.03;48.13
76156;BME280;64906;51.290;7.348;2023-07-20T08:58:46;98641.34;;;24.00;47.62
76156;BME280;64906;51.290;7.348;2023-07-20T09:01:12;98647.69;;;24.00;47.66
76156;BME280;64906;51.290;7.348;2023-07-20T09:03:38;98655.44;;;23.98;47.45
76156;BME280;64906;51.290;7.348;2023-07-20T09:06:05;98653.38;;;24.04;47.86
76156;BME280;64906;51.290;7.348;2023-07-20T09:08:31;98649.31;;;24.01;47.92
76156;BME280;64906;51.290;7.348;2023-07-20T09:10:56;98654.19;;;24.04;47.91
76156;BME280;64906;51.290;7.348;2023-07-20T09:13:21;98644.94;;;24.09;47.78
76156;BME280;64906;51.290;7.348;2023-07-20T09:15:49;98641.88;;;24.10;48.03
76156;BME280;64906;51.290;7.348;2023-07-20T09:18:29;98643.63;;;24.06;47.93
76156;BME280;64906;51.290;7.348;2023-07-20T09:21:05;98645.28;;;24.07;47.77
76156;BME280;64906;51.290;7.348;2023-07-20T09:23:34;98639.25;;;24.05;47.30
76156;BME280;64906;51.290;7.348;2023-07-20T09:26:00;98653.03;;;24.05;47.58
76156;BME280;64906;51.290;7.348;2023-07-20T09:28:26;98651.94;;;24.15;47.11
76156;BME280;64906;51.290;7.348;2023-07-20T09:30:54;98644.31;;;24.12;47.16
76156;BME280;64906;51.290;7.348;2023-07-20T09:33:24;98645.91;;;24.13;46.87
76156;BME280;64906;51.290;7.348;2023-07-20T09:35:49;98647.06;;;24.12;47.37
76156;BME280;64906;51.290;7.348;2023-07-20T09:38:15;98640.41;;;24.13;46.98
76156;BME280;64906;51.290;7.348;2023-07-20T09:40:41;98646.09;;;24.16;46.95
76156;BME280;64906;51.290;7.348;2023-07-20T09:43:10;98645.44;;;24.19;46.97
76156;BME280;64906;51.290;7.348;2023-07-20T09:45:39;98641.41;;;24.17;47.09
76156;BME280;64906;51.290;7.348;2023-07-20T09:48:06;98643.19;;;24.21;46.52
76156;BME280;64906;51.290;7.348;2023-07-20T09:50:42;98643.19;;;24.21;46.51
76156;BME280;64906;51.290;7.348;2023-07-20T09:53:11;98641.25;;;24.22;46.61
76156;BME280;64906;51.290;7.348;2023-07-20T09:55:39;98636.38;;;24.19;46.82
76156;BME280;64906;51.290;7.348;2023-07-20T09:58:04;98647.09;;;24.20;46.32
76156;BME280;64906;51.290;7.348;2023-07-20T10:00:32;98638.66;;;24.17;46.66
76156;BME280;64906;51.290;7.348;2023-07-20T10:02:59;98633.31;;;24.20;46.74
76156;BME280;64906;51.290;7.348;2023-07-20T10:05:27;98642.72;;;24.28;46.43
76156;BME280;64906;51.290;7.348;2023-07-20T10:07:58;98640.94;;;24.23;46.33
76156;BME280;64906;51.290;7.348;2023-07-20T10:10:24;98644.69;;;24.27;46.54
76156;BME280;64906;51.290;7.348;2023-07-20T10:12:50;98646.94;;;24.25;46.61
76156;BME280;64906;51.290;7.348;2023-07-20T10:15:23;98653.72;;;24.19;46.56
76156;BME280;64906;51.290;7.348;2023-07-20T10:18:15;98644.66;;;24.19;46.67
76156;BME280;64906;51.290;7.348;2023-07-20T10:20:43;98642.19;;;24.09;47.51
76156;BME280;64906;51.290;7.348;2023-07-20T10:23:09;98641.84;;;24.02;47.60
76156;BME280;64906;51.290;7.348;2023-07-20T10:25:36;98640.34;;;23.96;47.57
76156;BME280;64906;51.290;7.348;2023-07-20T10:28:05;98641.78;;;23.93;46.86
76156;BME280;64906;51.290;7.348;2023-07-20T10:30:34;98649.22;;;23.84;46.45
76156;BME280;64906;51.290;7.348;2023-07-20T10:33:02;98641.91;;;23.79;46.27
76156;BME280;64906;51.290;7.348;2023-07-20T10:35:28;98646.91;;;23.77;46.04
76156;BME280;64906;51.290;7.348;2023-07-20T10:37:54;98643.69;;;23.84;45.92
76156;BME280;64906;51.290;7.348;2023-07-20T10:40:55;98647.59;;;23.83;46.64
76156;BME280;64906;51.290;7.348;2023-07-20T10:43:21;98640.94;;;23.84;46.55
76156;BME280;64906;51.290;7.348;2023-07-20T10:45:50;98639.59;;;23.81;46.48
76156;BME280;64906;51.290;7.348;2023-07-20T10:48:24;98636.72;;;23.86;46.47
76156;BME280;64906;51.290;7.348;2023-07-20T10:51:11;98638.53;;;23.91;46.21
76156;BME280;64906;51.290;7.348;2023-07-20T10:53:39;98635.28;;;23.89;46.29
76156;BME280;64906;51.290;7.348;2023-07-20T10:56:11;98635.03;;;23.99;45.52
76156;BME280;64906;51.290;7.348;2023-07-20T10:58:37;98628.94;;;23.88;45.85
76156;BME280;64906;51.290;7.348;2023-07-20T11:01:05;98631.38;;;23.90;45.32
76156;BME280;64906;51.290;7.348;2023-07-20T11:03:38;98627.97;;;23.93;44.79
76156;BME280;64906;51.290;7.348;2023-07-20T11:08:55;98622.47;;;23.93;44.80
76156;BME280;64906;51.290;7.348;2023-07-20T11:11:29;98623.75;;;23.87;44.04
76156;BME280;64906;51.290;7.348;2023-07-20T11:14:02;98619.72;;;23.93;43.71
76156;BME280;64906;51.290;7.348;2023-07-20T11:16:39;98619.72;;;23.93;43.85
76156;BME280;64906;51.290;7.348;2023-07-20T11:19:13;98613.59;;;23.96;44.12
76156;BME280;64906;51.290;7.348;2023-07-20T11:21:41;98612.16;;;23.99;45.26
76156;BME280;64906;51.290;7.348;2023-07-20T11:24:07;98612.81;;;24.04;45.89
76156;BME280;64906;51.290;7.348;2023-07-20T11:29:13;98616.59;;;24.25;45.46
76156;BME280;64906;51.290;7.348;2023-07-20T11:31:40;98615.81;;;24.33;44.85
76156;BME280;64906;51.290;7.348;2023-07-20T11:34:07;98607.72;;;24.37;44.93
76156;BME280;64906;51.290;7.348;2023-07-20T11:36:33;98605.28;;;24.35;44.63
76156;BME280;64906;51.290;7.348;2023-07-20T11:38:59;98598.44;;;24.33;45.08
76156;BME280;64906;51.290;7.348;2023-07-20T11:41:25;98607.03;;;24.31;44.96
76156;BME280;64906;51.290;7.348;2023-07-20T11:43:52;98606.38;;;24.34;44.91
76156;BME280;64906;51.290;7.348;2023-07-20T11:46:17;98606.72;;;24.33;44.99
76156;BME280;64906;51.290;7.348;2023-07-20T11:48:42;98602.84;;;24.34;44.73
76156;BME280;64906;51.290;7.348;2023-07-20T11:51:16;98600.88;;;24.34;44.77
76156;BME280;64906;51.290;7.348;2023-07-20T11:53:43;98607.84;;;24.32;44.81
76156;BME280;64906;51.290;7.348;2023-07-20T11:56:09;98617.09;;;24.36;44.42
76156;BME280;64906;51.290;7.348;2023-07-20T11:58:35;98609.16;;;24.34;44.84
76156;BME280;64906;51.290;7.348;2023-07-20T12:01:01;98605.28;;;24.35;44.55
76156;BME280;64906;51.290;7.348;2023-07-20T12:03:27;98604.78;;;24.33;44.81
76156;BME280;64906;51.290;7.348;2023-07-20T12:05:52;98597.47;;;24.37;44.80
76156;BME280;64906;51.290;7.348;2023-07-20T12:08:18;98600.22;;;24.37;44.70
76156;BME280;64906;51.290;7.348;2023-07-20T12:10:43;98596.03;;;24.40;44.68
76156;BME280;64906;51.290;7.348;2023-07-20T12:13:10;98592.28;;;24.44;44.72
76156;BME280;64906;51.290;7.348;2023-07-20T12:15:37;98594.38;;;24.47;44.36
76156;BME280;64906;51.290;7.348;2023-07-20T12:18:02;98592.28;;;24.44;44.50
76156;BME280;64906;51.290;7.348;2023-07-20T12:20:32;98597.31;;;24.51;44.70
76156;BME280;64906;51.290;7.348;2023-07-20T12:23:03;98593.28;;;24.48;44.41
76156;BME280;64906;51.290;7.348;2023-07-20T12:28:04;98591.81;;;24.51;44.49
76156;BME280;64906;51.290;7.348;2023-07-20T12:30:30;98598.16;;;24.51;44.50
76156;BME280;64906;51.290;7.348;2023-07-20T12:32:55;98596.19;;;24.52;44.61
76156;BME280;64906;51.290;7.348;2023-07-20T12:35:21;98588.53;;;24.49;44.43
76156;BME280;64906;51.290;7.348;2023-07-20T12:37:46;98591.16;;;24.54;44.59
76156;BME280;64906;51.290;7.348;2023-07-20T12:40:14;98594.41;;;24.56;44.47
76156;BME280;64906;51.290;7.348;2023-07-20T12:42:39;98591.66;;;24.56;44.33
76156;BME280;64906;51.290;7.348;2023-07-20T12:45:05;98583.03;;;24.49;44.40
76156;BME280;64906;51.290;7.348;2023-07-20T12:47:30;98583.84;;;24.49;44.81
76156;BME280;64906;51.290;7.348;2023-07-20T12:49:55;98582.88;;;24.54;44.65
76156;BME280;64906;51.290;7.348;2023-07-20T12:52:21;98580.28;;;24.57;44.49
76156;BME280;64906;51.290;7.348;2023-07-20T12:54:46;98577.03;;;24.64;44.50
76156;BME280;64906;51.290;7.348;2023-07-20T12:57:11;98583.38;;;24.56;44.43
76156;BME280;64906;51.290;7.348;2023-07-20T12:59:37;98580.09;;;24.54;44.54
76156;BME280;64906;51.290;7.348;2023-07-20T13:02:03;98578.81;;;24.51;44.61
76156;BME280;64906;51.290;7.348;2023-07-20T13:04:29;98578.00;;;24.51;44.06
76156;BME280;64906;51.290;7.348;2023-07-20T13:06:54;98583.53;;;24.51;44.49
76156;BME280;64906;51.290;7.348;2023-07-20T13:09:20;98579.31;;;24.53;44.60